Time;durP1;ratioP1;P1;durP2;ratioP2;P2;SDS_P1;SDS_P2;PMS_P1;PMS_P2;Temp;Humidity;BMP_temperature;BMP_pressure;BME280_temperature;BME280_humidity;BME280_pressure;Samples;Min_cycle;Max_cycle;Signal;HPM_P1;HPM_P2
2024/01/22 00:00:36;;;;;;;3.75;1.63;;;7.10;99.90;;;;;;5076244;28;20059;-74
2024/01/22 00:03:02;;;;;;;3.53;1.70;;;7.20;99.90;;;;;;5084278;28;20043;-74
2024/01/22 00:05:28;;;;;;;3.17;1.42;;;7.20;99.90;;;;;;5084083;28;20044;-74
2024/01/22 00:07:54;;;;;;;1.33;1.23;;;7.20;99.90;;;;;;5066175;28;20500;-74
2024/01/22 00:10:19;;;;;;;9.38;2.17;;;7.20;99.90;;;;;;5080340;28;20200;-74
2024/01/22 00:12:45;;;;;;;1.95;1.23;;;7.20;99.90;;;;;;5081685;28;20055;-74
2024/01/22 00:15:11;;;;;;;4.88;1.50;;;7.20;99.90;;;;;;5068987;28;20072;-74
2024/01/22 00:17:36;;;;;;;13.60;1.70;;;7.30;99.90;;;;;;5072498;28;20083;-74
2024/01/22 00:20:03;;;;;;;4.40;1.17;;;7.30;99.90;;;;;;5069475;28;20045;-74
2024/01/22 00:22:28;;;;;;;1.10;1.00;;;7.40;99.90;;;;;;5058399;28;20188;-74
2024/01/22 00:24:54;;;;;;;3.53;1.42;;;7.40;99.90;;;;;;5079418;28;20050;-74
2024/01/22 00:27:20;;;;;;;6.75;2.28;;;7.40;99.90;;;;;;5073954;28;20037;-75
2024/01/22 00:29:45;;;;;;;5.28;1.77;;;7.40;99.90;;;;;;5076109;28;20052;-75
2024/01/22 00:32:12;;;;;;;2.53;1.55;;;7.40;99.90;;;;;;5065118;28;20041;-75
2024/01/22 00:34:37;;;;;;;1.52;1.17;;;7.40;99.90;;;;;;5081817;28;20058;-74
2024/01/22 00:37:03;;;;;;;7.18;1.52;;;7.50;99.90;;;;;;5058135;28;20120;-74
2024/01/22 00:39:29;;;;;;;4.28;1.48;;;7.40;99.90;;;;;;5059608;28;20044;-74
2024/01/22 00:41:56;;;;;;;5.95;1.52;;;7.50;99.90;;;;;;5081693;28;20083;-75
2024/01/22 00:44:22;;;;;;;4.03;1.00;;;7.50;99.90;;;;;;5081925;28;20557;-74
2024/01/22 00:46:48;;;;;;;6.13;1.40;;;7.50;99.90;;;;;;5061396;28;20045;-74
2024/01/22 00:49:14;;;;;;;2.33;1.42;;;7.60;99.90;;;;;;5064327;28;20045;-74
2024/01/22 00:51:40;;;;;;;1.63;0.85;;;7.60;99.90;;;;;;5081363;28;20052;-74
2024/01/22 00:54:05;;;;;;;1.67;1.20;;;7.60;99.90;;;;;;5080528;28;20048;-74
2024/01/22 00:56:31;;;;;;;2.05;1.50;;;7.70;99.90;;;;;;5086228;28;20052;-74
2024/01/22 00:58:57;;;;;;;2.25;1.63;;;7.70;99.90;;;;;;5078573;28;20120;-74
2024/01/22 01:01:23;;;;;;;10.13;1.50;;;7.70;99.90;;;;;;5044451;28;20063;-74
2024/01/22 01:03:49;;;;;;;2.90;1.58;;;7.70;99.90;;;;;;5069783;28;20045;-75
2024/01/22 01:06:14;;;;;;;3.03;1.13;;;7.70;99.90;;;;;;5064111;28;20032;-74
2024/01/22 01:08:40;;;;;;;6.50;1.38;;;7.80;99.90;;;;;;5066243;28;20105;-74
2024/01/22 01:11:06;;;;;;;3.88;1.90;;;7.80;99.90;;;;;;5068153;28;20045;-75
2024/01/22 01:13:31;;;;;;;1.30;1.15;;;7.80;99.90;;;;;;5069438;28;20044;-74
2024/01/22 01:15:57;;;;;;;5.47;1.40;;;7.90;99.90;;;;;;5083511;28;20045;-75
2024/01/22 01:18:23;;;;;;;2.58;1.48;;;7.90;99.90;;;;;;5059602;28;20087;-75
2024/01/22 01:20:48;;;;;;;3.15;1.52;;;8.00;99.90;;;;;;5059483;28;20041;-75
2024/01/22 01:23:14;;;;;;;2.75;1.42;;;8.00;99.90;;;;;;5056173;28;20088;-74
2024/01/22 01:25:40;;;;;;;3.08;1.35;;;8.00;99.90;;;;;;5056260;28;20040;-74
2024/01/22 01:28:05;;;;;;;2.05;1.05;;;8.10;99.90;;;;;;5067093;28;20033;-75
2024/01/22 01:30:31;;;;;;;3.63;1.35;;;8.20;99.90;;;;;;5059221;28;20037;-75
2024/01/22 01:32:57;;;;;;;1.42;0.93;;;8.20;99.90;;;;;;5063607;28;20033;-75
2024/01/22 01:35:22;;;;;;;2.03;1.10;;;8.20;99.90;;;;;;5080664;28;20054;-75
2024/01/22 01:37:48;;;;;;;3.85;1.35;;;8.30;99.90;;;;;;5076739;28;20108;-75
2024/01/22 01:40:14;;;;;;;1.55;1.35;;;8.30;99.90;;;;;;5048992;28;20094;-75
2024/01/22 01:42:43;;;;;;;3.70;1.17;;;8.30;99.90;;;;;;5055687;28;20052;-75
2024/01/22 01:45:13;;;;;;;1.60;0.88;;;8.40;99.90;;;;;;5096477;28;20029;-75
2024/01/22 01:47:45;;;;;;;2.13;1.08;;;8.40;99.90;;;;;;5096072;28;20052;-75
2024/01/22 01:50:11;;;;;;;6.57;1.45;;;8.40;99.90;;;;;;5079426;28;20408;-75
2024/01/22 01:52:38;;;;;;;14.75;1.92;;;8.40;99.90;;;;;;5057225;28;20052;-75
2024/01/22 01:55:04;;;;;;;2.78;1.50;;;8.40;99.90;;;;;;5062119;28;20072;-75
2024/01/22 01:57:29;;;;;;;6.03;1.50;;;8.40;99.90;;;;;;5070311;28;20090;-75
2024/01/22 01:59:57;;;;;;;3.38;1.40;;;8.40;99.90;;;;;;5079885;28;20045;-75
2024/01/22 02:02:23;;;;;;;5.43;1.35;;;8.40;99.90;;;;;;5075628;28;20090;-75
2024/01/22 02:04:48;;;;;;;1.52;1.20;;;8.40;99.90;;;;;;5064946;28;20040;-75
2024/01/22 02:07:15;;;;;;;3.17;1.23;;;8.40;99.90;;;;;;5065212;28;20096;-75
2024/01/22 02:09:51;;;;;;;3.30;1.48;;;8.30;99.90;;;;;;5080277;28;20100;-75
2024/01/22 02:12:18;;;;;;;3.15;1.45;;;8.40;99.90;;;;;;5075939;28;20096;-75
2024/01/22 02:14:47;;;;;;;2.08;1.17;;;8.30;99.90;;;;;;5057442;28;20511;-75
2024/01/22 02:17:13;;;;;;;3.85;2.45;;;8.30;99.90;;;;;;5067090;28;20052;-75
2024/01/22 02:19:39;;;;;;;2.15;1.35;;;8.30;99.90;;;;;;5079138;28;20069;-75
2024/01/22 02:22:05;;;;;;;1.92;0.90;;;8.40;99.90;;;;;;5072685;28;20124;-76
2024/01/22 02:24:31;;;;;;;2.47;1.30;;;8.40;99.90;;;;;;5080102;28;20096;-76
2024/01/22 02:26:57;;;;;;;1.17;0.98;;;8.40;99.90;;;;;;5061867;28;20068;-76
2024/01/22 02:29:23;;;;;;;2.60;1.52;;;8.40;99.90;;;;;;5062049;28;20045;-75
2024/01/22 02:31:50;;;;;;;1.48;0.98;;;8.50;99.90;;;;;;5057202;28;20067;-75
2024/01/22 02:34:16;;;;;;;2.22;1.05;;;8.50;99.90;;;;;;5052732;28;20071;-75
2024/01/22 02:36:41;;;;;;;4.80;1.20;;;8.40;99.90;;;;;;5063147;28;20033;-75
2024/01/22 02:39:07;;;;;;;2.08;0.93;;;8.40;99.90;;;;;;5074257;28;20063;-76
2024/01/22 02:41:33;;;;;;;1.90;1.08;;;8.40;99.90;;;;;;5074106;28;20045;-75
2024/01/22 02:43:59;;;;;;;2.63;0.90;;;8.50;99.90;;;;;;5064919;28;20060;-75
2024/01/22 02:46:27;;;;;;;1.17;0.82;;;8.40;99.90;;;;;;5073367;28;20037;-76
2024/01/22 02:48:53;;;;;;;2.55;0.95;;;8.50;99.90;;;;;;5042051;28;20052;-75
2024/01/22 02:51:18;;;;;;;3.60;1.08;;;8.60;99.90;;;;;;5075009;28;20072;-75
2024/01/22 02:53:45;;;;;;;1.65;1.30;;;8.60;99.90;;;;;;5074228;28;20128;-75
2024/01/22 02:56:11;;;;;;;4.95;1.67;;;8.60;99.90;;;;;;5054041;28;20520;-76
2024/01/22 02:58:36;;;;;;;1.92;0.85;;;8.60;99.90;;;;;;5036170;28;20037;-76
2024/01/22 03:01:02;;;;;;;2.55;1.23;;;8.60;99.90;;;;;;5039362;28;20041;-76
2024/01/22 03:03:28;;;;;;;1.55;1.13;;;8.60;99.90;;;;;;5058751;28;20043;-75
2024/01/22 03:05:53;;;;;;;1.17;0.95;;;8.60;99.90;;;;;;5055588;28;20048;-76
2024/01/22 03:08:19;;;;;;;2.17;0.98;;;8.60;99.90;;;;;;5056925;28;20045;-76
2024/01/22 03:10:45;;;;;;;1.27;0.70;;;8.60;99.90;;;;;;5057535;28;20051;-75
2024/01/22 03:13:12;;;;;;;3.13;1.30;;;8.70;99.90;;;;;;5054261;28;20037;-76
2024/01/22 03:15:37;;;;;;;3.00;1.35;;;8.60;99.90;;;;;;5058691;28;20048;-77
2024/01/22 03:18:03;;;;;;;2.05;0.57;;;8.60;99.90;;;;;;5057831;28;20107;-76
2024/01/22 03:20:29;;;;;;;0.95;0.63;;;8.60;99.90;;;;;;5054284;28;20052;-75
2024/01/22 03:22:54;;;;;;;2.28;0.98;;;8.60;99.90;;;;;;5058617;28;20041;-76
2024/01/22 03:25:20;;;;;;;2.47;1.08;;;8.70;99.90;;;;;;5051315;28;20041;-76
2024/01/22 03:27:46;;;;;;;1.23;0.63;;;8.70;99.90;;;;;;5057799;28;20059;-75
2024/01/22 03:30:12;;;;;;;3.10;0.85;;;8.60;99.90;;;;;;5057000;28;20075;-76
2024/01/22 03:32:37;;;;;;;2.63;1.10;;;8.60;99.90;;;;;;5056076;28;20419;-76
2024/01/22 03:35:03;;;;;;;1.10;0.88;;;8.60;99.90;;;;;;5056362;28;20104;-76
2024/01/22 03:37:29;;;;;;;1.95;0.98;;;8.60;99.90;;;;;;5054186;28;20037;-76
2024/01/22 03:39:55;;;;;;;1.33;0.77;;;8.60;99.90;;;;;;5039126;28;20407;-76
2024/01/22 03:42:20;;;;;;;1.23;0.73;;;8.60;99.90;;;;;;5038818;28;20048;-77
2024/01/22 03:44:46;;;;;;;1.42;0.60;;;8.60;99.90;;;;;;5058302;28;20052;-77
2024/01/22 03:47:12;;;;;;;2.38;1.33;;;8.60;99.90;;;;;;5054902;28;20051;-77
2024/01/22 03:49:37;;;;;;;0.60;0.60;;;8.60;99.90;;;;;;5057990;28;20037;-78
2024/01/22 03:52:03;;;;;;;1.40;0.63;;;8.60;99.90;;;;;;5056592;28;20500;-78
2024/01/22 03:54:29;;;;;;;2.55;1.15;;;8.70;99.90;;;;;;5036286;28;20424;-78
2024/01/22 03:56:56;;;;;;;1.35;0.93;;;8.70;99.90;;;;;;5049994;28;20041;-78
2024/01/22 03:59:22;;;;;;;1.23;0.63;;;8.70;99.90;;;;;;5052393;28;20570;-78
2024/01/22 04:01:47;;;;;;;0.95;0.70;;;8.70;99.90;;;;;;5060068;28;20605;-79
2024/01/22 04:04:13;;;;;;;1.48;0.57;;;8.70;99.90;;;;;;5056573;28;20080;-78
2024/01/22 04:06:39;;;;;;;7.32;1.05;;;8.70;99.90;;;;;;5071632;28;20034;-78
2024/01/22 04:09:04;;;;;;;1.63;1.05;;;8.70;99.90;;;;;;5060256;28;20097;-79
2024/01/22 04:11:30;;;;;;;1.40;0.88;;;8.70;99.90;;;;;;5049496;28;20072;-78
2024/01/22 04:13:56;;;;;;;1.20;0.63;;;8.70;99.90;;;;;;5071707;28;20068;-78
2024/01/22 04:16:21;;;;;;;1.33;0.55;;;8.80;99.90;;;;;;5059970;28;20049;-79
2024/01/22 04:18:47;;;;;;;5.25;1.00;;;8.80;99.90;;;;;;5047695;28;20060;-78
2024/01/22 04:21:12;;;;;;;4.68;1.00;;;8.80;99.90;;;;;;5051436;28;20174;-79
2024/01/22 04:23:38;;;;;;;1.05;0.90;;;8.80;99.90;;;;;;5081286;28;20063;-78
2024/01/22 04:26:05;;;;;;;0.98;0.70;;;8.80;99.90;;;;;;5063815;28;20476;-79
2024/01/22 04:28:31;;;;;;;1.00;0.70;;;8.80;99.90;;;;;;5071945;28;20048;-79
2024/01/22 04:30:56;;;;;;;0.98;0.40;;;8.90;99.90;;;;;;5078427;28;20033;-80
2024/01/22 04:33:22;;;;;;;0.88;0.80;;;8.90;99.90;;;;;;5050234;28;20591;-79
2024/01/22 04:35:49;;;;;;;4.13;0.73;;;8.90;99.90;;;;;;5045623;28;20037;-79
2024/01/22 04:38:15;;;;;;;0.95;0.60;;;9.00;99.90;;;;;;5079913;28;20045;-80
2024/01/22 04:40:41;;;;;;;1.65;0.70;;;9.00;99.90;;;;;;5070276;28;20123;-79
2024/01/22 04:43:07;;;;;;;2.13;0.93;;;9.00;99.90;;;;;;5066322;28;20471;-79
2024/01/22 04:45:33;;;;;;;0.32;0.30;;;9.10;99.90;;;;;;5063055;28;20049;-79
2024/01/22 04:47:59;;;;;;;0.73;0.30;;;9.00;99.90;;;;;;5072365;28;20045;-79
2024/01/22 04:50:25;;;;;;;0.65;0.55;;;9.10;99.90;;;;;;5070448;28;20036;-79
2024/01/22 04:52:50;;;;;;;0.60;0.60;;;9.10;99.90;;;;;;5078411;28;20082;-79
2024/01/22 04:55:16;;;;;;;0.70;0.70;;;9.10;99.90;;;;;;5067726;28;20052;-79
2024/01/22 04:57:42;;;;;;;1.63;0.95;;;9.10;99.90;;;;;;5063153;28;20105;-79
2024/01/22 05:00:08;;;;;;;1.45;0.82;;;9.10;99.90;;;;;;5047363;28;20029;-78
2024/01/22 05:02:34;;;;;;;0.75;0.57;;;9.20;99.90;;;;;;5057552;28;20111;-79
2024/01/22 05:05:03;;;;;;;2.70;0.60;;;9.30;99.90;;;;;;5057792;28;20508;-79
2024/01/22 05:07:28;;;;;;;0.95;0.77;;;9.30;99.90;;;;;;5043125;28;20593;-79
2024/01/22 05:09:57;;;;;;;0.73;0.52;;;9.40;99.90;;;;;;5064207;28;20045;-78
2024/01/22 05:12:23;;;;;;;0.47;0.20;;;9.40;99.90;;;;;;5068306;28;20040;-79
2024/01/22 05:14:49;;;;;;;3.17;1.08;;;9.50;99.90;;;;;;5077280;28;20045;-79
2024/01/22 05:17:15;;;;;;;11.60;0.85;;;9.50;99.90;;;;;;5065224;28;20037;-79
2024/01/22 05:19:40;;;;;;;0.47;0.40;;;9.50;99.90;;;;;;5061519;28;20033;-79
2024/01/22 05:22:06;;;;;;;0.60;0.30;;;9.50;99.90;;;;;;5051882;28;20037;-79
2024/01/22 05:24:32;;;;;;;3.03;0.40;;;9.60;99.90;;;;;;5079996;28;20028;-80
2024/01/22 05:26:57;;;;;;;3.55;1.33;;;9.60;99.90;;;;;;5090606;28;20052;-80
2024/01/22 05:29:23;;;;;;;0.32;0.30;;;9.60;99.90;;;;;;5074455;28;20104;-80
2024/01/22 05:31:50;;;;;;;1.02;0.60;;;9.70;99.90;;;;;;5026666;28;20048;-80
2024/01/22 05:34:15;;;;;;;1.13;0.95;;;9.70;99.90;;;;;;5048839;28;20037;-79
2024/01/22 05:36:43;;;;;;;0.95;0.65;;;9.80;99.90;;;;;;5053211;28;20083;-80
2024/01/22 05:39:08;;;;;;;0.80;0.45;;;9.90;99.90;;;;;;5060750;28;20053;-79
2024/01/22 05:41:34;;;;;;;0.88;0.60;;;9.90;99.90;;;;;;5066618;28;20067;-80
2024/01/22 05:44:00;;;;;;;2.17;0.50;;;9.90;99.90;;;;;;5079277;28;20078;-80
2024/01/22 05:46:27;;;;;;;0.52;0.50;;;10.00;99.90;;;;;;5078897;28;20049;-80
2024/01/22 05:48:53;;;;;;;0.47;0.25;;;10.00;99.90;;;;;;5096688;28;20041;-80
2024/01/22 05:51:20;;;;;;;0.57;0.40;;;10.00;99.90;;;;;;5072756;28;20604;-80
2024/01/22 05:53:46;;;;;;;2.25;0.60;;;10.20;99.90;;;;;;5062825;28;20048;-80
2024/01/22 05:56:27;;;;;;;1.58;0.43;;;10.20;99.90;;;;;;5052213;28;20060;-80
2024/01/22 05:58:54;;;;;;;1.67;0.68;;;10.30;99.90;;;;;;5064361;28;20060;-80
2024/01/22 06:01:24;;;;;;;0.65;0.50;;;10.30;99.90;;;;;;5051122;28;20034;-80
2024/01/22 06:03:49;;;;;;;0.52;0.47;;;10.40;99.90;;;;;;5050703;28;20066;-80
2024/01/22 06:06:16;;;;;;;0.30;0.30;;;10.30;99.90;;;;;;5064411;28;20038;-80
2024/01/22 06:08:42;;;;;;;0.70;0.30;;;10.40;99.90;;;;;;5056979;28;20045;-80
2024/01/22 06:11:08;;;;;;;4.15;0.30;;;10.40;99.90;;;;;;5055983;28;20124;-80
2024/01/22 06:13:41;;;;;;;1.67;0.90;;;10.40;99.90;;;;;;5076029;28;20072;-80
2024/01/22 06:16:11;;;;;;;0.20;0.20;;;10.50;99.90;;;;;;5057816;28;20100;-81
2024/01/22 06:18:39;;;;;;;2.83;0.35;;;10.50;99.90;;;;;;5043357;28;20338;-80
2024/01/22 06:21:06;;;;;;;10.13;0.50;;;10.60;99.90;;;;;;5044387;28;20029;-80
2024/01/22 06:23:32;;;;;;;0.88;0.80;;;10.60;99.90;;;;;;5064452;28;20120;-81
2024/01/22 06:25:59;;;;;;;0.30;0.20;;;10.60;99.90;;;;;;5092771;28;20041;-80
2024/01/22 06:28:25;;;;;;;0.77;0.22;;;10.70;99.90;;;;;;5074746;28;20051;-80
2024/01/22 06:30:52;;;;;;;0.45;0.25;;;10.60;99.90;;;;;;5064717;28;20133;-81
2024/01/22 06:33:19;;;;;;;0.30;0.30;;;10.60;99.90;;;;;;5062723;28;20048;-81
2024/01/22 06:35:45;;;;;;;1.27;0.30;;;10.70;99.90;;;;;;5078555;28;20091;-81
2024/01/22 06:38:12;;;;;;;0.70;0.40;;;10.70;99.90;;;;;;5052442;28;20047;-77
2024/01/22 06:40:37;;;;;;;1.95;0.30;;;10.70;99.90;;;;;;5071785;28;20040;-80
2024/01/22 06:43:04;;;;;;;1.02;0.47;;;10.70;99.90;;;;;;5074816;28;20045;-79
2024/01/22 06:45:29;;;;;;;0.80;0.43;;;10.70;99.90;;;;;;5066615;28;20039;-79
2024/01/22 06:47:55;;;;;;;3.85;0.57;;;10.60;99.90;;;;;;5069389;28;20041;-79
2024/01/22 06:50:22;;;;;;;0.63;0.38;;;10.60;99.90;;;;;;5065840;28;20041;-79
2024/01/22 06:52:48;;;;;;;0.40;0.40;;;10.60;99.90;;;;;;5058010;28;20131;-78
2024/01/22 06:55:14;;;;;;;1.55;0.70;;;10.60;99.90;;;;;;5057486;28;20088;-79
2024/01/22 06:57:40;;;;;;;4.50;1.00;;;10.60;99.90;;;;;;5058095;28;20045;-79
2024/01/22 07:00:09;;;;;;;5.63;0.73;;;10.60;99.90;;;;;;5074466;28;20041;-79
2024/01/22 07:02:37;;;;;;;2.10;0.80;;;10.50;99.90;;;;;;5055613;28;20045;-79
2024/01/22 07:05:06;;;;;;;6.03;0.60;;;10.60;99.90;;;;;;5057715;28;20488;-80
2024/01/22 07:07:32;;;;;;;3.25;1.10;;;10.60;99.90;;;;;;5057986;28;20041;-80
2024/01/22 07:09:58;;;;;;;5.07;1.33;;;10.70;99.90;;;;;;5041294;28;20101;-80
2024/01/22 07:12:24;;;;;;;17.52;1.60;;;10.70;99.90;;;;;;5057175;28;20053;-80
2024/01/22 07:14:50;;;;;;;4.00;1.00;;;10.70;99.90;;;;;;5061353;28;20377;-80
2024/01/22 07:17:17;;;;;;;2.83;1.15;;;10.80;99.90;;;;;;5074305;28;20123;-80
2024/01/22 07:19:45;;;;;;;7.97;1.25;;;10.80;99.90;;;;;;5069871;28;20049;-81
2024/01/22 07:22:10;;;;;;;4.78;0.98;;;10.90;99.90;;;;;;5057168;28;20150;-80
2024/01/22 07:24:37;;;;;;;1.88;0.60;;;10.90;99.90;;;;;;5061318;28;20049;-80
2024/01/22 07:27:03;;;;;;;4.85;0.77;;;10.80;99.90;;;;;;5069474;28;20037;-80
2024/01/22 07:29:30;;;;;;;4.50;1.25;;;10.80;99.90;;;;;;5053689;28;20037;-81
2024/01/22 07:31:56;;;;;;;7.30;0.93;;;10.80;99.90;;;;;;5056145;28;20556;-80
2024/01/22 07:34:22;;;;;;;5.95;0.95;;;10.80;99.90;;;;;;5052506;28;20443;-81
2024/01/22 07:36:48;;;;;;;5.45;1.23;;;10.80;99.90;;;;;;5052141;28;20052;-80
2024/01/22 07:39:14;;;;;;;4.80;0.88;;;10.80;99.90;;;;;;5051823;28;20037;-80
2024/01/22 07:41:39;;;;;;;12.18;1.67;;;10.80;99.90;;;;;;5052875;28;20123;-80
2024/01/22 07:44:05;;;;;;;4.75;1.08;;;10.90;99.90;;;;;;5021362;28;20064;-80
2024/01/22 07:46:31;;;;;;;7.00;1.33;;;10.90;99.90;;;;;;5048829;28;20049;-80
2024/01/22 07:48:57;;;;;;;3.00;1.10;;;10.80;99.90;;;;;;5055915;28;20053;-80
2024/01/22 07:51:23;;;;;;;1.25;0.77;;;10.90;99.90;;;;;;5062894;28;20044;-80
2024/01/22 07:53:50;;;;;;;11.55;1.45;;;10.80;99.90;;;;;;5042856;28;20067;-80
2024/01/22 07:56:16;;;;;;;5.28;1.30;;;10.80;99.90;;;;;;5062533;28;20112;-79
2024/01/22 07:58:42;;;;;;;2.72;0.70;;;10.80;99.90;;;;;;5059316;28;20041;-79
2024/01/22 08:01:08;;;;;;;6.25;1.23;;;10.80;99.90;;;;;;5060921;28;20037;-80
2024/01/22 08:03:34;;;;;;;3.22;0.93;;;10.80;99.90;;;;;;5060184;28;20128;-80
2024/01/22 08:06:00;;;;;;;2.45;1.10;;;10.80;99.90;;;;;;5061013;28;20037;-80
2024/01/22 08:08:27;;;;;;;4.32;2.33;;;10.80;99.90;;;;;;5055559;28;20084;-80
2024/01/22 08:10:54;;;;;;;9.32;1.35;;;10.70;99.90;;;;;;5053988;28;20794;-80
2024/01/22 08:13:20;;;;;;;0.88;0.35;;;10.70;99.90;;;;;;5037660;28;20160;-80
2024/01/22 08:15:47;;;;;;;3.15;0.95;;;10.60;99.90;;;;;;5057905;28;20052;-79
2024/01/22 08:18:13;;;;;;;3.67;0.55;;;10.60;99.90;;;;;;5051200;28;20037;-79
2024/01/22 08:20:39;;;;;;;9.55;1.50;;;10.60;99.90;;;;;;5056231;28;20094;-80
2024/01/22 08:23:05;;;;;;;5.43;0.70;;;10.60;99.90;;;;;;5055145;28;20046;-79
2024/01/22 08:25:31;;;;;;;4.90;1.02;;;10.60;99.90;;;;;;5068496;28;20045;-79
2024/01/22 08:27:58;;;;;;;8.38;1.33;;;10.60;99.90;;;;;;5071156;28;20087;-80
2024/01/22 08:30:24;;;;;;;3.22;1.40;;;10.60;99.90;;;;;;5059189;28;20044;-80
2024/01/22 08:32:51;;;;;;;7.03;1.30;;;10.60;99.90;;;;;;5057497;28;20049;-80
2024/01/22 08:35:18;;;;;;;5.25;0.88;;;10.60;99.90;;;;;;5051700;28;20041;-80
2024/01/22 08:37:52;;;;;;;5.57;1.38;;;10.60;99.90;;;;;;5054971;28;20048;-79
2024/01/22 08:40:21;;;;;;;4.32;1.20;;;10.60;99.90;;;;;;5056893;28;20104;-79
2024/01/22 08:42:55;;;;;;;2.55;1.40;;;10.50;99.90;;;;;;5060509;28;20044;-78
2024/01/22 08:45:21;;;;;;;8.02;1.00;;;10.50;99.90;;;;;;5055662;28;20158;-78
2024/01/22 08:47:51;;;;;;;4.32;0.60;;;10.50;99.90;;;;;;5045470;28;20037;-79
2024/01/22 08:50:21;;;;;;;6.43;1.13;;;10.50;99.90;;;;;;5058884;28;20072;-80
2024/01/22 08:52:48;;;;;;;3.97;1.90;;;10.40;99.90;;;;;;5044378;28;20046;-79
2024/01/22 08:55:18;;;;;;;10.57;0.98;;;10.40;99.90;;;;;;5055863;28;20488;-79
2024/01/22 08:57:44;;;;;;;3.50;0.77;;;10.40;99.90;;;;;;5067000;28;20063;-79
2024/01/22 09:00:10;;;;;;;5.28;0.95;;;10.30;99.90;;;;;;5039156;28;20033;-79
2024/01/22 09:02:41;;;;;;;7.57;1.63;;;10.30;99.90;;;;;;5065499;28;20051;-79
2024/01/22 09:05:10;;;;;;;4.05;0.95;;;10.20;99.90;;;;;;5073302;28;20083;-79
2024/01/22 09:07:36;;;;;;;12.77;1.75;;;10.20;99.90;;;;;;5071497;28;20081;-79
2024/01/22 09:10:06;;;;;;;10.18;1.05;;;10.20;99.90;;;;;;5075805;28;20041;-80
2024/01/22 09:12:33;;;;;;;3.03;1.15;;;10.20;99.90;;;;;;5059041;28;20056;-79
2024/01/22 09:14:59;;;;;;;12.05;2.17;;;10.20;99.90;;;;;;5093270;28;20086;-80
2024/01/22 09:17:25;;;;;;;14.18;2.47;;;10.20;99.90;;;;;;5062814;28;20048;-80
2024/01/22 09:19:51;;;;;;;12.07;1.70;;;10.20;99.90;;;;;;5063661;28;20060;-79
2024/01/22 09:22:19;;;;;;;8.07;1.85;;;10.20;99.90;;;;;;5063581;28;20043;-78
2024/01/22 09:24:45;;;;;;;9.43;1.25;;;10.20;99.90;;;;;;5068980;28;20131;-78
2024/01/22 09:27:11;;;;;;;23.25;3.42;;;10.10;99.90;;;;;;5075593;28;20044;-78
2024/01/22 09:29:36;;;;;;;13.02;2.20;;;10.10;99.90;;;;;;5080189;28;20047;-78
2024/01/22 09:32:02;;;;;;;15.52;2.58;;;10.10;99.90;;;;;;5072139;28;20032;-78
2024/01/22 09:34:29;;;;;;;11.85;2.55;;;10.10;99.90;;;;;;5062076;28;20066;-77
2024/01/22 09:36:54;;;;;;;23.02;3.90;;;10.10;99.90;;;;;;5060692;28;20051;-77
2024/01/22 09:39:20;;;;;;;13.90;3.67;;;10.10;99.90;;;;;;5077444;28;20072;-78
2024/01/22 09:41:46;;;;;;;14.68;2.25;;;10.10;99.90;;;;;;5066256;28;20045;-78
2024/01/22 09:44:13;;;;;;;12.75;3.47;;;10.10;99.90;;;;;;5053204;28;20037;-77
2024/01/22 09:46:40;;;;;;;13.05;2.40;;;10.20;99.90;;;;;;5079003;28;20060;-78
2024/01/22 09:49:05;;;;;;;14.70;2.75;;;10.20;99.90;;;;;;5071298;28;20036;-77
2024/01/22 09:51:34;;;;;;;13.85;2.85;;;10.20;99.90;;;;;;5078641;28;20040;-78
2024/01/22 09:54:09;;;;;;;18.92;2.78;;;10.20;99.90;;;;;;5071552;28;20037;-77
2024/01/22 09:56:37;;;;;;;16.40;3.20;;;10.10;99.90;;;;;;5077802;28;20036;-77
2024/01/22 09:59:20;;;;;;;20.38;2.83;;;10.10;99.90;;;;;;5078026;28;20044;-78
2024/01/22 10:01:50;;;;;;;17.58;3.10;;;10.10;99.90;;;;;;5080981;28;20071;-78
2024/01/22 10:04:17;;;;;;;19.40;3.67;;;10.10;99.90;;;;;;5075568;28;20102;-77
2024/01/22 10:06:44;;;;;;;25.25;3.63;;;10.10;99.90;;;;;;5076819;28;20033;-78
2024/01/22 10:09:14;;;;;;;11.73;2.30;;;10.10;99.90;;;;;;5068514;28;20048;-78
2024/01/22 10:11:41;;;;;;;14.73;1.77;;;10.10;99.90;;;;;;5076338;28;20045;-78
2024/01/22 10:14:06;;;;;;;16.73;1.90;;;10.10;99.90;;;;;;5080242;28;20045;-77
2024/01/22 10:16:32;;;;;;;9.80;2.25;;;10.10;99.90;;;;;;5069332;28;20177;-77
2024/01/22 10:18:59;;;;;;;16.05;3.20;;;10.10;99.90;;;;;;5062943;28;20045;-77
2024/01/22 10:21:25;;;;;;;21.45;2.90;;;10.10;99.90;;;;;;5068642;28;20043;-77
2024/01/22 10:24:08;;;;;;;13.90;2.60;;;10.10;99.90;;;;;;5062593;28;20104;-77
2024/01/22 10:26:35;;;;;;;23.55;2.65;;;10.10;99.90;;;;;;5076878;28;20049;-77
2024/01/22 10:29:19;;;;;;;8.73;2.75;;;10.10;99.90;;;;;;5076127;28;20040;-77
2024/01/22 10:31:56;;;;;;;9.52;2.83;;;10.10;99.90;;;;;;5069762;28;20041;-76
2024/01/22 10:34:53;;;;;;;29.58;3.60;;;10.10;99.90;;;;;;5077363;28;20048;-76
2024/01/22 10:37:19;;;;;;;24.52;3.90;;;10.00;99.90;;;;;;5064228;28;20049;-76
2024/01/22 10:40:00;;;;;;;12.60;2.38;;;10.00;99.90;;;;;;5079669;28;20048;-76
2024/01/22 10:42:26;;;;;;;19.63;3.13;;;10.00;99.90;;;;;;5078815;28;20102;-76
2024/01/22 10:44:53;;;;;;;13.23;2.10;;;10.00;99.90;;;;;;5078723;28;20056;-76
2024/01/22 10:47:19;;;;;;;12.85;2.85;;;10.00;99.90;;;;;;5060489;28;20060;-76
2024/01/22 10:49:46;;;;;;;21.58;2.83;;;9.90;99.90;;;;;;5077191;28;20112;-76
2024/01/22 10:52:13;;;;;;;19.00;3.38;;;9.90;99.90;;;;;;5079455;28;20102;-76
2024/01/22 10:54:39;;;;;;;19.30;3.78;;;9.90;99.90;;;;;;5078842;28;20052;-75
2024/01/22 10:57:18;;;;;;;9.88;1.77;;;9.90;99.90;;;;;;5076020;28;20080;-76
2024/01/22 10:59:48;;;;;;;21.70;4.10;;;9.90;99.90;;;;;;5058923;28;20104;-76
2024/01/22 11:02:23;;;;;;;16.77;3.33;;;9.90;99.90;;;;;;5069445;28;20519;-76
2024/01/22 11:04:57;;;;;;;17.08;3.30;;;9.90;99.90;;;;;;5061656;28;20452;-75
2024/01/22 11:07:31;;;;;;;12.00;2.20;;;9.90;99.90;;;;;;5068270;28;20044;-75
2024/01/22 11:10:01;;;;;;;16.77;3.10;;;9.90;99.90;;;;;;5058915;28;20040;-75
2024/01/22 11:12:33;;;;;;;19.90;2.88;;;9.90;99.90;;;;;;5063783;28;20091;-76
2024/01/22 11:14:59;;;;;;;15.23;2.28;;;10.00;99.90;;;;;;5063472;28;20037;-75
2024/01/22 11:17:25;;;;;;;17.13;3.25;;;10.00;99.90;;;;;;5076873;28;20036;-75
2024/01/22 11:20:11;;;;;;;24.20;3.22;;;10.00;99.90;;;;;;5062667;28;20455;-76
2024/01/22 11:22:37;;;;;;;18.40;3.47;;;10.10;99.90;;;;;;5075761;28;20041;-75
2024/01/22 11:25:09;;;;;;;16.67;3.25;;;10.10;99.90;;;;;;5070087;28;20032;-76
2024/01/22 11:27:42;;;;;;;12.82;3.55;;;10.10;99.90;;;;;;5073703;28;20033;-76
2024/01/22 11:30:20;;;;;;;22.17;3.33;;;10.10;99.90;;;;;;5069360;28;20408;-76
2024/01/22 11:32:47;;;;;;;20.55;3.38;;;10.10;99.90;;;;;;5079001;28;20411;-75
2024/01/22 11:35:12;;;;;;;20.65;2.95;;;10.10;99.90;;;;;;5078968;28;20033;-75
2024/01/22 11:37:38;;;;;;;15.23;3.55;;;10.20;99.90;;;;;;5058723;28;20111;-76
2024/01/22 11:40:08;;;;;;;23.13;2.70;;;10.10;99.90;;;;;;5062901;28;20044;-76
2024/01/22 11:42:34;;;;;;;23.15;3.17;;;10.20;99.90;;;;;;5061512;28;20041;-76
2024/01/22 11:45:13;;;;;;;7.10;2.88;;;10.20;99.90;;;;;;5058969;28;20373;-76
2024/01/22 11:47:39;;;;;;;22.15;2.67;;;10.20;99.90;;;;;;5058200;28;20084;-76
2024/01/22 11:50:07;;;;;;;19.85;2.70;;;10.20;99.90;;;;;;5056614;28;20067;-76
2024/01/22 11:52:34;;;;;;;17.83;2.20;;;10.20;99.90;;;;;;5057146;28;20044;-76
2024/01/22 11:55:02;;;;;;;9.05;2.25;;;10.30;99.90;;;;;;5067565;28;20068;-76
2024/01/22 11:57:36;;;;;;;12.73;1.58;;;10.30;99.90;;;;;;5058539;28;20083;-76
2024/01/22 12:00:14;;;;;;;22.77;2.35;;;10.30;99.90;;;;;;5058134;28;20037;-76
2024/01/22 12:02:46;;;;;;;9.05;1.48;;;10.30;99.90;;;;;;5054760;28;20084;-76
2024/01/22 12:05:17;;;;;;;13.68;1.35;;;10.30;99.90;;;;;;5055814;28;20075;-76
2024/01/22 12:07:45;;;;;;;12.18;2.72;;;10.30;99.90;;;;;;5056306;28;20041;-76
2024/01/22 12:10:27;;;;;;;13.40;1.55;;;10.30;99.90;;;;;;5056163;28;20049;-76
2024/01/22 12:12:55;;;;;;;16.95;1.58;;;10.20;99.90;;;;;;5055415;28;20043;-76
2024/01/22 12:15:23;;;;;;;19.80;2.75;;;10.20;99.90;;;;;;5053872;28;20037;-76
2024/01/22 12:17:49;;;;;;;5.20;1.90;;;10.10;99.90;;;;;;5059826;28;20048;-76
2024/01/22 12:20:16;;;;;;;18.60;2.13;;;10.10;99.90;;;;;;5056446;28;20037;-76
2024/01/22 12:22:42;;;;;;;10.35;1.58;;;10.10;99.90;;;;;;5065908;28;20051;-76
2024/01/22 12:25:09;;;;;;;5.43;1.20;;;10.10;99.90;;;;;;5071924;28;20469;-76
2024/01/22 12:27:36;;;;;;;21.60;2.85;;;10.20;99.90;;;;;;5062238;28;20052;-76
2024/01/22 12:30:09;;;;;;;6.30;1.40;;;10.10;99.90;;;;;;5079957;28;20062;-76
2024/01/22 12:32:38;;;;;;;6.05;0.90;;;10.10;99.90;;;;;;5068402;28;20076;-76
2024/01/22 12:35:05;;;;;;;18.30;2.33;;;10.00;99.90;;;;;;5071604;28;20118;-76
2024/01/22 12:37:32;;;;;;;16.10;1.75;;;10.10;99.90;;;;;;5080014;28;20045;-76
2024/01/22 12:40:25;;;;;;;7.50;1.10;;;10.10;99.90;;;;;;5053290;28;20093;-76
2024/01/22 12:42:51;;;;;;;;;;;10.20;99.90;;;;;;5066505;28;20198;-76
2024/01/22 12:45:21;;;;;;;12.65;1.92;;;10.30;99.90;;;;;;5067605;28;19928;-77
2024/01/22 12:47:47;;;;;;;8.63;1.77;;;10.30;99.90;;;;;;5055582;28;20049;-76
2024/01/22 12:50:24;;;;;;;14.40;3.08;;;10.30;99.90;;;;;;5063302;28;20037;-78